sensor_id;sensor_type;location;lat;lon;timestamp;P1;durP1;ratioP1;P2;durP2;ratioP2
56657;SDS011;42530;52.240;19.354;2022-10-31T00:01:14;61.47;;;55.00;;
56657;SDS011;42530;52.240;19.354;2022-10-31T00:03:43;72.28;;;53.20;;
56657;SDS011;42530;52.240;19.354;2022-10-31T00:06:08;55.42;;;50.10;;
56657;SDS011;42530;52.240;19.354;2022-10-31T00:08:34;55.40;;;49.50;;
56657;SDS011;42530;52.240;19.354;2022-10-31T00:11:00;69.68;;;52.08;;
56657;SDS011;42530;52.240;19.354;2022-10-31T00:13:26;64.38;;;52.00;;
56657;SDS011;42530;52.240;19.354;2022-10-31T00:15:51;60.90;;;53.80;;
56657;SDS011;42530;52.240;19.354;2022-10-31T00:18:17;60.55;;;51.90;;
56657;SDS011;42530;52.240;19.354;2022-10-31T00:20:43;72.55;;;54.13;;
56657;SDS011;42530;52.240;19.354;2022-10-31T00:23:08;60.25;;;52.92;;
56657;SDS011;42530;52.240;19.354;2022-10-31T00:25:36;85.10;;;55.33;;
56657;SDS011;42530;52.240;19.354;2022-10-31T00:28:04;101.28;;;59.42;;
56657;SDS011;42530;52.240;19.354;2022-10-31T00:30:30;83.63;;;55.20;;
56657;SDS011;42530;52.240;19.354;2022-10-31T00:32:56;82.07;;;55.97;;
56657;SDS011;42530;52.240;19.354;2022-10-31T00:35:22;59.67;;;53.28;;
56657;SDS011;42530;52.240;19.354;2022-10-31T00:37:47;66.18;;;53.28;;
56657;SDS011;42530;52.240;19.354;2022-10-31T00:40:13;62.25;;;51.80;;
56657;SDS011;42530;52.240;19.354;2022-10-31T00:42:39;58.47;;;52.20;;
56657;SDS011;42530;52.240;19.354;2022-10-31T00:45:07;59.42;;;53.25;;
56657;SDS011;42530;52.240;19.354;2022-10-31T00:47:34;69.07;;;50.65;;
56657;SDS011;42530;52.240;19.354;2022-10-31T00:50:00;84.85;;;54.90;;
56657;SDS011;42530;52.240;19.354;2022-10-31T00:52:25;62.60;;;52.80;;
56657;SDS011;42530;52.240;19.354;2022-10-31T00:54:51;61.97;;;54.92;;
56657;SDS011;42530;52.240;19.354;2022-10-31T00:57:17;60.72;;;50.97;;
56657;SDS011;42530;52.240;19.354;2022-10-31T01:03:03;53.60;;;48.03;;
56657;SDS011;42530;52.240;19.354;2022-10-31T01:05:29;55.67;;;49.80;;
56657;SDS011;42530;52.240;19.354;2022-10-31T01:07:54;55.58;;;50.28;;
56657;SDS011;42530;52.240;19.354;2022-10-31T01:10:20;55.78;;;50.35;;
56657;SDS011;42530;52.240;19.354;2022-10-31T01:12:47;56.00;;;50.03;;
56657;SDS011;42530;52.240;19.354;2022-10-31T01:15:15;51.92;;;46.83;;
56657;SDS011;42530;52.240;19.354;2022-10-31T01:17:48;51.35;;;45.92;;
56657;SDS011;42530;52.240;19.354;2022-10-31T01:20:14;50.40;;;45.78;;
56657;SDS011;42530;52.240;19.354;2022-10-31T01:22:41;52.22;;;47.33;;
56657;SDS011;42530;52.240;19.354;2022-10-31T01:25:07;52.45;;;47.33;;
56657;SDS011;42530;52.240;19.354;2022-10-31T01:27:34;51.00;;;45.78;;
56657;SDS011;42530;52.240;19.354;2022-10-31T01:29:59;58.92;;;52.47;;
56657;SDS011;42530;52.240;19.354;2022-10-31T01:32:26;58.10;;;51.97;;
56657;SDS011;42530;52.240;19.354;2022-10-31T01:34:54;59.90;;;53.65;;
56657;SDS011;42530;52.240;19.354;2022-10-31T01:37:19;59.83;;;53.53;;
56657;SDS011;42530;52.240;19.354;2022-10-31T01:39:45;79.03;;;61.53;;
56657;SDS011;42530;52.240;19.354;2022-10-31T01:42:18;64.32;;;54.50;;
56657;SDS011;42530;52.240;19.354;2022-10-31T01:44:48;85.78;;;59.45;;
56657;SDS011;42530;52.240;19.354;2022-10-31T01:47:19;60.45;;;53.80;;
56657;SDS011;42530;52.240;19.354;2022-10-31T01:49:57;84.78;;;61.03;;
56657;SDS011;42530;52.240;19.354;2022-10-31T01:52:30;62.38;;;55.15;;
56657;SDS011;42530;52.240;19.354;2022-10-31T01:55:03;67.00;;;56.50;;
56657;SDS011;42530;52.240;19.354;2022-10-31T01:57:34;62.45;;;55.85;;
56657;SDS011;42530;52.240;19.354;2022-10-31T02:00:04;60.47;;;54.00;;
56657;SDS011;42530;52.240;19.354;2022-10-31T02:02:33;58.97;;;51.83;;
56657;SDS011;42530;52.240;19.354;2022-10-31T02:05:00;54.40;;;48.65;;
56657;SDS011;42530;52.240;19.354;2022-10-31T02:08:03;53.40;;;47.92;;
56657;SDS011;42530;52.240;19.354;2022-10-31T02:10:27;53.90;;;48.33;;
56657;SDS011;42530;52.240;19.354;2022-10-31T02:12:56;50.58;;;45.90;;
56657;SDS011;42530;52.240;19.354;2022-10-31T02:15:23;48.75;;;44.03;;
56657;SDS011;42530;52.240;19.354;2022-10-31T02:17:48;48.83;;;44.58;;
56657;SDS011;42530;52.240;19.354;2022-10-31T02:20:18;47.97;;;42.92;;
56657;SDS011;42530;52.240;19.354;2022-10-31T02:25:37;49.85;;;45.08;;
56657;SDS011;42530;52.240;19.354;2022-10-31T02:28:22;49.45;;;45.03;;
56657;SDS011;42530;52.240;19.354;2022-10-31T02:33:38;47.95;;;43.20;;
56657;SDS011;42530;52.240;19.354;2022-10-31T02:48:20;57.70;;;51.90;;
56657;SDS011;42530;52.240;19.354;2022-10-31T02:50:59;55.20;;;50.00;;
56657;SDS011;42530;52.240;19.354;2022-10-31T02:53:26;71.05;;;50.15;;
56657;SDS011;42530;52.240;19.354;2022-10-31T02:55:58;53.38;;;47.75;;
56657;SDS011;42530;52.240;19.354;2022-10-31T02:58:28;59.70;;;53.33;;
56657;SDS011;42530;52.240;19.354;2022-10-31T03:01:16;54.83;;;48.92;;
56657;SDS011;42530;52.240;19.354;2022-10-31T03:06:41;54.33;;;48.92;;
56657;SDS011;42530;52.240;19.354;2022-10-31T03:17:23;51.90;;;46.35;;
56657;SDS011;42530;52.240;19.354;2022-10-31T03:19:58;58.78;;;50.38;;
56657;SDS011;42530;52.240;19.354;2022-10-31T03:22:28;57.60;;;51.95;;
56657;SDS011;42530;52.240;19.354;2022-10-31T03:24:56;57.17;;;51.10;;
56657;SDS011;42530;52.240;19.354;2022-10-31T03:27:26;58.30;;;52.80;;
56657;SDS011;42530;52.240;19.354;2022-10-31T03:29:57;61.90;;;55.38;;
56657;SDS011;42530;52.240;19.354;2022-10-31T03:32:27;54.67;;;49.13;;
56657;SDS011;42530;52.240;19.354;2022-10-31T03:34:58;53.33;;;47.67;;
56657;SDS011;42530;52.240;19.354;2022-10-31T03:37:27;53.47;;;48.10;;
56657;SDS011;42530;52.240;19.354;2022-10-31T03:39:55;52.55;;;47.40;;
56657;SDS011;42530;52.240;19.354;2022-10-31T03:42:28;52.72;;;47.42;;
56657;SDS011;42530;52.240;19.354;2022-10-31T03:44:57;58.20;;;52.10;;
56657;SDS011;42530;52.240;19.354;2022-10-31T03:47:28;64.13;;;57.03;;
56657;SDS011;42530;52.240;19.354;2022-10-31T03:49:54;59.25;;;53.22;;
56657;SDS011;42530;52.240;19.354;2022-10-31T03:52:27;60.83;;;54.50;;
56657;SDS011;42530;52.240;19.354;2022-10-31T03:54:59;83.70;;;56.42;;
56657;SDS011;42530;52.240;19.354;2022-10-31T04:00:16;69.45;;;54.38;;
56657;SDS011;42530;52.240;19.354;2022-10-31T04:02:45;58.50;;;51.58;;
56657;SDS011;42530;52.240;19.354;2022-10-31T04:05:17;59.85;;;51.42;;
56657;SDS011;42530;52.240;19.354;2022-10-31T04:07:45;56.90;;;50.30;;
56657;SDS011;42530;52.240;19.354;2022-10-31T04:10:14;76.63;;;52.28;;
56657;SDS011;42530;52.240;19.354;2022-10-31T04:12:41;56.72;;;47.80;;
56657;SDS011;42530;52.240;19.354;2022-10-31T04:15:11;61.00;;;49.80;;
56657;SDS011;42530;52.240;19.354;2022-10-31T04:17:39;59.55;;;46.10;;
56657;SDS011;42530;52.240;19.354;2022-10-31T04:20:07;55.22;;;47.00;;
56657;SDS011;42530;52.240;19.354;2022-10-31T04:22:33;56.45;;;45.17;;
56657;SDS011;42530;52.240;19.354;2022-10-31T04:24:58;52.97;;;43.42;;
56657;SDS011;42530;52.240;19.354;2022-10-31T04:27:24;46.50;;;41.40;;
56657;SDS011;42530;52.240;19.354;2022-10-31T04:29:49;42.65;;;38.50;;
56657;SDS011;42530;52.240;19.354;2022-10-31T04:32:15;45.35;;;40.53;;
56657;SDS011;42530;52.240;19.354;2022-10-31T04:34:40;46.33;;;40.60;;
56657;SDS011;42530;52.240;19.354;2022-10-31T04:37:06;50.47;;;41.65;;
56657;SDS011;42530;52.240;19.354;2022-10-31T04:39:32;42.88;;;38.75;;
56657;SDS011;42530;52.240;19.354;2022-10-31T04:41:57;57.50;;;44.05;;
56657;SDS011;42530;52.240;19.354;2022-10-31T04:44:22;50.15;;;41.38;;
56657;SDS011;42530;52.240;19.354;2022-10-31T04:46:48;47.60;;;42.67;;
56657;SDS011;42530;52.240;19.354;2022-10-31T04:49:14;44.88;;;40.30;;
56657;SDS011;42530;52.240;19.354;2022-10-31T04:51:39;42.70;;;38.05;;
56657;SDS011;42530;52.240;19.354;2022-10-31T04:54:05;56.75;;;44.50;;
56657;SDS011;42530;52.240;19.354;2022-10-31T04:56:30;56.55;;;40.72;;
56657;SDS011;42530;52.240;19.354;2022-10-31T04:58:56;54.80;;;39.50;;
56657;SDS011;42530;52.240;19.354;2022-10-31T05:01:21;45.42;;;40.80;;
56657;SDS011;42530;52.240;19.354;2022-10-31T05:03:47;45.50;;;39.00;;
56657;SDS011;42530;52.240;19.354;2022-10-31T05:06:12;47.47;;;39.63;;
56657;SDS011;42530;52.240;19.354;2022-10-31T05:08:38;47.42;;;37.72;;
56657;SDS011;42530;52.240;19.354;2022-10-31T05:11:04;43.15;;;37.10;;
56657;SDS011;42530;52.240;19.354;2022-10-31T05:13:30;43.13;;;37.97;;
56657;SDS011;42530;52.240;19.354;2022-10-31T05:15:56;52.25;;;41.22;;
56657;SDS011;42530;52.240;19.354;2022-10-31T05:18:22;55.25;;;42.13;;
56657;SDS011;42530;52.240;19.354;2022-10-31T05:20:48;50.92;;;41.55;;
56657;SDS011;42530;52.240;19.354;2022-10-31T05:23:13;51.70;;;41.22;;
56657;SDS011;42530;52.240;19.354;2022-10-31T05:25:39;51.25;;;42.70;;
56657;SDS011;42530;52.240;19.354;2022-10-31T05:28:06;59.10;;;44.50;;
56657;SDS011;42530;52.240;19.354;2022-10-31T05:30:32;53.88;;;45.85;;
56657;SDS011;42530;52.240;19.354;2022-10-31T05:32:58;62.08;;;43.65;;
56657;SDS011;42530;52.240;19.354;2022-10-31T05:35:26;61.38;;;44.70;;
56657;SDS011;42530;52.240;19.354;2022-10-31T05:37:53;49.85;;;44.60;;
56657;SDS011;42530;52.240;19.354;2022-10-31T05:40:19;74.85;;;47.30;;
56657;SDS011;42530;52.240;19.354;2022-10-31T05:42:46;64.88;;;49.80;;
56657;SDS011;42530;52.240;19.354;2022-10-31T05:45:16;58.38;;;52.25;;
56657;SDS011;42530;52.240;19.354;2022-10-31T05:47:42;65.38;;;53.08;;
56657;SDS011;42530;52.240;19.354;2022-10-31T05:50:15;70.05;;;53.80;;
56657;SDS011;42530;52.240;19.354;2022-10-31T05:52:40;78.07;;;48.40;;
56657;SDS011;42530;52.240;19.354;2022-10-31T05:55:06;60.28;;;49.33;;
56657;SDS011;42530;52.240;19.354;2022-10-31T05:57:31;60.95;;;49.83;;
56657;SDS011;42530;52.240;19.354;2022-10-31T05:59:57;63.20;;;48.70;;
56657;SDS011;42530;52.240;19.354;2022-10-31T06:02:23;56.75;;;50.50;;
56657;SDS011;42530;52.240;19.354;2022-10-31T06:04:48;62.03;;;50.53;;
56657;SDS011;42530;52.240;19.354;2022-10-31T06:07:14;75.18;;;54.72;;
56657;SDS011;42530;52.240;19.354;2022-10-31T06:09:39;62.60;;;52.60;;
56657;SDS011;42530;52.240;19.354;2022-10-31T06:12:05;66.00;;;50.78;;
56657;SDS011;42530;52.240;19.354;2022-10-31T06:14:31;72.00;;;52.28;;
56657;SDS011;42530;52.240;19.354;2022-10-31T06:16:56;55.80;;;50.05;;
56657;SDS011;42530;52.240;19.354;2022-10-31T06:19:21;54.80;;;46.72;;
56657;SDS011;42530;52.240;19.354;2022-10-31T06:21:47;75.07;;;52.67;;
56657;SDS011;42530;52.240;19.354;2022-10-31T06:24:12;65.32;;;55.65;;
56657;SDS011;42530;52.240;19.354;2022-10-31T06:26:40;57.03;;;49.22;;
56657;SDS011;42530;52.240;19.354;2022-10-31T06:29:06;56.78;;;49.78;;
56657;SDS011;42530;52.240;19.354;2022-10-31T06:31:31;55.58;;;46.15;;
56657;SDS011;42530;52.240;19.354;2022-10-31T06:33:57;53.22;;;46.90;;
56657;SDS011;42530;52.240;19.354;2022-10-31T06:36:23;51.67;;;45.80;;
56657;SDS011;42530;52.240;19.354;2022-10-31T06:38:48;56.28;;;48.90;;
56657;SDS011;42530;52.240;19.354;2022-10-31T06:41:14;57.78;;;45.55;;
56657;SDS011;42530;52.240;19.354;2022-10-31T06:43:39;53.60;;;47.60;;
56657;SDS011;42530;52.240;19.354;2022-10-31T06:46:05;57.60;;;48.35;;
56657;SDS011;42530;52.240;19.354;2022-10-31T06:48:31;49.92;;;41.15;;
56657;SDS011;42530;52.240;19.354;2022-10-31T06:51:00;51.38;;;45.80;;
56657;SDS011;42530;52.240;19.354;2022-10-31T06:53:26;54.10;;;48.60;;
56657;SDS011;42530;52.240;19.354;2022-10-31T06:55:55;54.28;;;47.58;;
56657;SDS011;42530;52.240;19.354;2022-10-31T06:58:21;51.22;;;45.65;;
56657;SDS011;42530;52.240;19.354;2022-10-31T07:00:47;58.47;;;49.33;;
56657;SDS011;42530;52.240;19.354;2022-10-31T07:03:14;48.08;;;41.55;;
56657;SDS011;42530;52.240;19.354;2022-10-31T07:05:43;49.13;;;42.70;;
56657;SDS011;42530;52.240;19.354;2022-10-31T07:08:10;44.17;;;39.53;;
56657;SDS011;42530;52.240;19.354;2022-10-31T07:10:38;42.58;;;38.17;;
56657;SDS011;42530;52.240;19.354;2022-10-31T07:13:05;45.75;;;39.28;;
56657;SDS011;42530;52.240;19.354;2022-10-31T07:15:35;44.00;;;39.30;;
56657;SDS011;42530;52.240;19.354;2022-10-31T07:18:02;45.17;;;40.30;;
56657;SDS011;42530;52.240;19.354;2022-10-31T07:20:30;40.78;;;36.55;;
56657;SDS011;42530;52.240;19.354;2022-10-31T07:22:56;40.58;;;36.63;;
56657;SDS011;42530;52.240;19.354;2022-10-31T07:25:22;40.35;;;36.05;;
56657;SDS011;42530;52.240;19.354;2022-10-31T07:27:48;41.22;;;37.08;;
56657;SDS011;42530;52.240;19.354;2022-10-31T07:30:14;40.88;;;34.17;;
56657;SDS011;42530;52.240;19.354;2022-10-31T07:32:44;39.50;;;35.25;;
56657;SDS011;42530;52.240;19.354;2022-10-31T07:35:15;46.95;;;41.85;;
56657;SDS011;42530;52.240;19.354;2022-10-31T07:37:42;48.67;;;37.92;;
56657;SDS011;42530;52.240;19.354;2022-10-31T07:40:08;44.97;;;37.00;;
56657;SDS011;42530;52.240;19.354;2022-10-31T07:42:39;50.50;;;41.47;;
56657;SDS011;42530;52.240;19.354;2022-10-31T07:45:07;49.50;;;38.72;;
56657;SDS011;42530;52.240;19.354;2022-10-31T07:47:53;56.95;;;42.70;;
56657;SDS011;42530;52.240;19.354;2022-10-31T07:50:23;50.25;;;39.15;;
56657;SDS011;42530;52.240;19.354;2022-10-31T07:53:06;65.38;;;40.10;;
56657;SDS011;42530;52.240;19.354;2022-10-31T07:55:33;77.35;;;41.42;;
56657;SDS011;42530;52.240;19.354;2022-10-31T07:58:01;50.13;;;39.10;;
56657;SDS011;42530;52.240;19.354;2022-10-31T08:00:33;42.72;;;38.17;;
56657;SDS011;42530;52.240;19.354;2022-10-31T08:02:59;49.35;;;40.90;;
56657;SDS011;42530;52.240;19.354;2022-10-31T08:05:26;52.17;;;38.17;;
56657;SDS011;42530;52.240;19.354;2022-10-31T08:07:53;48.08;;;38.03;;
56657;SDS011;42530;52.240;19.354;2022-10-31T08:10:19;43.05;;;38.63;;
56657;SDS011;42530;52.240;19.354;2022-10-31T08:12:45;46.47;;;38.42;;
56657;SDS011;42530;52.240;19.354;2022-10-31T08:15:11;57.60;;;39.58;;
56657;SDS011;42530;52.240;19.354;2022-10-31T08:17:36;48.83;;;40.35;;
56657;SDS011;42530;52.240;19.354;2022-10-31T08:20:03;49.15;;;38.70;;
56657;SDS011;42530;52.240;19.354;2022-10-31T08:22:30;83.38;;;42.10;;
56657;SDS011;42530;52.240;19.354;2022-10-31T08:24:55;39.83;;;35.08;;
56657;SDS011;42530;52.240;19.354;2022-10-31T08:27:21;45.70;;;36.50;;
56657;SDS011;42530;52.240;19.354;2022-10-31T08:29:46;42.15;;;37.80;;
56657;SDS011;42530;52.240;19.354;2022-10-31T08:32:12;45.97;;;38.70;;
56657;SDS011;42530;52.240;19.354;2022-10-31T08:34:37;60.03;;;42.35;;
56657;SDS011;42530;52.240;19.354;2022-10-31T08:37:03;82.97;;;50.97;;
56657;SDS011;42530;52.240;19.354;2022-10-31T08:39:28;57.72;;;47.05;;
56657;SDS011;42530;52.240;19.354;2022-10-31T08:41:54;63.17;;;48.22;;
56657;SDS011;42530;52.240;19.354;2022-10-31T08:44:19;64.28;;;51.78;;
56657;SDS011;42530;52.240;19.354;2022-10-31T08:46:45;64.28;;;50.58;;
56657;SDS011;42530;52.240;19.354;2022-10-31T08:49:11;57.42;;;47.17;;
56657;SDS011;42530;52.240;19.354;2022-10-31T08:51:37;90.60;;;52.55;;
56657;SDS011;42530;52.240;19.354;2022-10-31T08:54:02;87.90;;;51.30;;
56657;SDS011;42530;52.240;19.354;2022-10-31T08:56:28;82.57;;;50.15;;
56657;SDS011;42530;52.240;19.354;2022-10-31T08:58:53;61.72;;;45.15;;
56657;SDS011;42530;52.240;19.354;2022-10-31T09:01:19;81.97;;;48.17;;
56657;SDS011;42530;52.240;19.354;2022-10-31T09:03:44;104.07;;;52.17;;
56657;SDS011;42530;52.240;19.354;2022-10-31T09:06:10;151.52;;;58.42;;
56657;SDS011;42530;52.240;19.354;2022-10-31T09:08:35;136.98;;;57.35;;
56657;SDS011;42530;52.240;19.354;2022-10-31T09:11:01;98.45;;;47.42;;
56657;SDS011;42530;52.240;19.354;2022-10-31T09:13:27;84.95;;;50.70;;
56657;SDS011;42530;52.240;19.354;2022-10-31T09:15:52;91.00;;;46.90;;
56657;SDS011;42530;52.240;19.354;2022-10-31T09:18:19;86.75;;;46.58;;
56657;SDS011;42530;52.240;19.354;2022-10-31T09:20:47;66.40;;;44.13;;
56657;SDS011;42530;52.240;19.354;2022-10-31T09:23:18;60.67;;;39.65;;
56657;SDS011;42530;52.240;19.354;2022-10-31T09:25:45;64.07;;;41.10;;
56657;SDS011;42530;52.240;19.354;2022-10-31T09:28:12;87.47;;;44.83;;
56657;SDS011;42530;52.240;19.354;2022-10-31T09:30:39;76.85;;;43.88;;
56657;SDS011;42530;52.240;19.354;2022-10-31T09:33:12;87.10;;;43.75;;
56657;SDS011;42530;52.240;19.354;2022-10-31T09:35:38;57.00;;;41.67;;
56657;SDS011;42530;52.240;19.354;2022-10-31T09:38:05;56.33;;;40.50;;
56657;SDS011;42530;52.240;19.354;2022-10-31T09:40:43;63.60;;;39.88;;
56657;SDS011;42530;52.240;19.354;2022-10-31T09:43:29;60.08;;;40.80;;
56657;SDS011;42530;52.240;19.354;2022-10-31T09:51:23;50.30;;;40.83;;
56657;SDS011;42530;52.240;19.354;2022-10-31T09:56:31;72.70;;;43.00;;
56657;SDS011;42530;52.240;19.354;2022-10-31T09:58:58;69.30;;;45.28;;
56657;SDS011;42530;52.240;19.354;2022-10-31T10:07:06;75.85;;;43.05;;
56657;SDS011;42530;52.240;19.354;2022-10-31T10:09:42;121.30;;;46.92;;
56657;SDS011;42530;52.240;19.354;2022-10-31T10:17:20;80.65;;;45.08;;
56657;SDS011;42530;52.240;19.354;2022-10-31T10:22:41;74.82;;;44.15;;
56657;SDS011;42530;52.240;19.354;2022-10-31T10:27:52;99.60;;;46.50;;
56657;SDS011;42530;52.240;19.354;2022-10-31T10:30:31;116.28;;;47.67;;
56657;SDS011;42530;52.240;19.354;2022-10-31T10:33:20;99.07;;;48.28;;
56657;SDS011;42530;52.240;19.354;2022-10-31T10:35:53;50.42;;;43.05;;
56657;SDS011;42530;52.240;19.354;2022-10-31T10:38:26;70.22;;;44.55;;
56657;SDS011;42530;52.240;19.354;2022-10-31T10:40:52;82.40;;;42.97;;
56657;SDS011;42530;52.240;19.354;2022-10-31T10:45:50;70.70;;;47.05;;
56657;SDS011;42530;52.240;19.354;2022-10-31T10:51:51;83.28;;;43.58;;
56657;SDS011;42530;52.240;19.354;2022-10-31T11:00:36;54.17;;;40.72;;
56657;SDS011;42530;52.240;19.354;2022-10-31T11:03:04;51.03;;;39.03;;
56657;SDS011;42530;52.240;19.354;2022-10-31T11:08:11;76.50;;;45.40;;
56657;SDS011;42530;52.240;19.354;2022-10-31T11:10:56;55.33;;;45.35;;
56657;SDS011;42530;52.240;19.354;2022-10-31T11:13:26;65.97;;;45.85;;
56657;SDS011;42530;52.240;19.354;2022-10-31T11:15:57;64.47;;;39.90;;
56657;SDS011;42530;52.240;19.354;2022-10-31T11:18:41;51.63;;;40.40;;
56657;SDS011;42530;52.240;19.354;2022-10-31T11:26:34;65.70;;;47.58;;
56657;SDS011;42530;52.240;19.354;2022-10-31T11:29:03;63.72;;;44.63;;
56657;SDS011;42530;52.240;19.354;2022-10-31T11:31:34;96.80;;;45.22;;
56657;SDS011;42530;52.240;19.354;2022-10-31T11:34:01;51.20;;;42.30;;
56657;SDS011;42530;52.240;19.354;2022-10-31T11:36:35;73.38;;;45.72;;
56657;SDS011;42530;52.240;19.354;2022-10-31T11:39:04;79.80;;;44.58;;
56657;SDS011;42530;52.240;19.354;2022-10-31T11:41:39;57.22;;;44.67;;
56657;SDS011;42530;52.240;19.354;2022-10-31T11:44:15;71.13;;;46.17;;
56657;SDS011;42530;52.240;19.354;2022-10-31T11:46:59;60.47;;;44.10;;
56657;SDS011;42530;52.240;19.354;2022-10-31T11:49:31;55.15;;;44.03;;
56657;SDS011;42530;52.240;19.354;2022-10-31T11:52:05;74.93;;;48.27;;
56657;SDS011;42530;52.240;19.354;2022-10-31T11:54:40;55.63;;;43.75;;
56657;SDS011;42530;52.240;19.354;2022-10-31T12:02:48;63.95;;;45.42;;
56657;SDS011;42530;52.240;19.354;2022-10-31T12:05:18;63.25;;;47.15;;
56657;SDS011;42530;52.240;19.354;2022-10-31T12:07:48;65.80;;;48.55;;
56657;SDS011;42530;52.240;19.354;2022-10-31T12:10:14;91.80;;;52.38;;
56657;SDS011;42530;52.240;19.354;2022-10-31T12:15:45;90.65;;;51.38;;
56657;SDS011;42530;52.240;19.354;2022-10-31T12:26:18;55.75;;;43.95;;
56657;SDS011;42530;52.240;19.354;2022-10-31T12:32:03;62.90;;;49.05;;
56657;SDS011;42530;52.240;19.354;2022-10-31T12:34:54;59.28;;;45.65;;
56657;SDS011;42530;52.240;19.354;2022-10-31T12:37:44;63.55;;;44.50;;
56657;SDS011;42530;52.240;19.354;2022-10-31T12:45:55;54.03;;;41.00;;
56657;SDS011;42530;52.240;19.354;2022-10-31T12:51:28;64.07;;;45.17;;
56657;SDS011;42530;52.240;19.354;2022-10-31T12:57:01;68.07;;;45.88;;
56657;SDS011;42530;52.240;19.354;2022-10-31T12:59:48;82.05;;;47.75;;
56657;SDS011;42530;52.240;19.354;2022-10-31T13:05:14;67.43;;;47.30;;
56657;SDS011;42530;52.240;19.354;2022-10-31T13:07:49;87.32;;;51.33;;
56657;SDS011;42530;52.240;19.354;2022-10-31T13:13:17;67.20;;;47.00;;
56657;SDS011;42530;52.240;19.354;2022-10-31T13:15:47;60.20;;;48.13;;
56657;SDS011;42530;52.240;19.354;2022-10-31T13:18:39;86.53;;;48.53;;
56657;SDS011;42530;52.240;19.354;2022-10-31T13:21:19;66.63;;;47.33;;
56657;SDS011;42530;52.240;19.354;2022-10-31T13:23:49;68.15;;;50.08;;
56657;SDS011;42530;52.240;19.354;2022-10-31T13:31:29;53.88;;;46.67;;
56657;SDS011;42530;52.240;19.354;2022-10-31T13:33:58;57.65;;;46.60;;
56657;SDS011;42530;52.240;19.354;2022-10-31T13:42:04;53.10;;;46.03;;
56657;SDS011;42530;52.240;19.354;2022-10-31T13:44:54;57.30;;;46.72;;
56657;SDS011;42530;52.240;19.354;2022-10-31T13:49:48;73.20;;;49.70;;
56657;SDS011;42530;52.240;19.354;2022-10-31T13:52:22;101.85;;;50.90;;
56657;SDS011;42530;52.240;19.354;2022-10-31T13:54:50;70.65;;;51.05;;
56657;SDS011;42530;52.240;19.354;2022-10-31T14:00:24;58.55;;;51.55;;
56657;SDS011;42530;52.240;19.354;2022-10-31T14:02:51;60.75;;;50.20;;
56657;SDS011;42530;52.240;19.354;2022-10-31T14:05:23;78.63;;;52.45;;
56657;SDS011;42530;52.240;19.354;2022-10-31T14:07:49;100.07;;;53.85;;
56657;SDS011;42530;52.240;19.354;2022-10-31T14:15:56;75.47;;;49.80;;
56657;SDS011;42530;52.240;19.354;2022-10-31T14:18:29;80.15;;;64.97;;
56657;SDS011;42530;52.240;19.354;2022-10-31T14:20:56;91.60;;;61.97;;
56657;SDS011;42530;52.240;19.354;2022-10-31T14:23:39;72.45;;;57.30;;
56657;SDS011;42530;52.240;19.354;2022-10-31T14:28:46;62.38;;;46.58;;
56657;SDS011;42530;52.240;19.354;2022-10-31T14:34:23;59.42;;;48.58;;
56657;SDS011;42530;52.240;19.354;2022-10-31T14:36:58;65.63;;;49.25;;
56657;SDS011;42530;52.240;19.354;2022-10-31T14:39:47;55.28;;;44.42;;
56657;SDS011;42530;52.240;19.354;2022-10-31T14:50:50;55.70;;;47.88;;
56657;SDS011;42530;52.240;19.354;2022-10-31T14:55:49;74.40;;;50.95;;
56657;SDS011;42530;52.240;19.354;2022-10-31T15:00:57;72.10;;;53.45;;
56657;SDS011;42530;52.240;19.354;2022-10-31T15:03:44;65.63;;;51.58;;
56657;SDS011;42530;52.240;19.354;2022-10-31T15:06:12;68.72;;;52.20;;
56657;SDS011;42530;52.240;19.354;2022-10-31T15:08:46;67.05;;;52.38;;
56657;SDS011;42530;52.240;19.354;2022-10-31T15:11:17;107.97;;;57.97;;
56657;SDS011;42530;52.240;19.354;2022-10-31T15:16:12;69.53;;;55.53;;
56657;SDS011;42530;52.240;19.354;2022-10-31T15:18:48;103.18;;;63.70;;
56657;SDS011;42530;52.240;19.354;2022-10-31T15:21:16;109.30;;;59.00;;
56657;SDS011;42530;52.240;19.354;2022-10-31T15:23:43;89.07;;;60.33;;
56657;SDS011;42530;52.240;19.354;2022-10-31T15:26:18;69.97;;;54.20;;
56657;SDS011;42530;52.240;19.354;2022-10-31T15:28:56;80.78;;;58.05;;
56657;SDS011;42530;52.240;19.354;2022-10-31T15:31:24;88.65;;;61.92;;
56657;SDS011;42530;52.240;19.354;2022-10-31T15:33:49;111.85;;;68.60;;
56657;SDS011;42530;52.240;19.354;2022-10-31T15:36:19;72.47;;;60.28;;
56657;SDS011;42530;52.240;19.354;2022-10-31T15:38:46;86.00;;;65.65;;
56657;SDS011;42530;52.240;19.354;2022-10-31T15:41:28;135.00;;;75.75;;
56657;SDS011;42530;52.240;19.354;2022-10-31T15:44:00;144.52;;;82.63;;
56657;SDS011;42530;52.240;19.354;2022-10-31T15:46:39;96.57;;;76.20;;
56657;SDS011;42530;52.240;19.354;2022-10-31T15:49:10;98.88;;;73.10;;
56657;SDS011;42530;52.240;19.354;2022-10-31T15:51:44;134.05;;;86.10;;
56657;SDS011;42530;52.240;19.354;2022-10-31T15:54:10;125.03;;;89.22;;
56657;SDS011;42530;52.240;19.354;2022-10-31T15:56:38;85.15;;;63.30;;
56657;SDS011;42530;52.240;19.354;2022-10-31T15:59:11;118.68;;;73.38;;
56657;SDS011;42530;52.240;19.354;2022-10-31T16:01:53;99.95;;;60.47;;
56657;SDS011;42530;52.240;19.354;2022-10-31T16:04:25;160.48;;;78.50;;
56657;SDS011;42530;52.240;19.354;2022-10-31T16:07:01;176.85;;;68.13;;
56657;SDS011;42530;52.240;19.354;2022-10-31T16:09:36;150.95;;;68.90;;
56657;SDS011;42530;52.240;19.354;2022-10-31T16:12:01;78.85;;;57.13;;
56657;SDS011;42530;52.240;19.354;2022-10-31T16:14:29;86.13;;;56.70;;
56657;SDS011;42530;52.240;19.354;2022-10-31T16:17:01;110.03;;;68.50;;
56657;SDS011;42530;52.240;19.354;2022-10-31T16:19:31;91.05;;;62.78;;
56657;SDS011;42530;52.240;19.354;2022-10-31T16:22:04;93.18;;;67.10;;
56657;SDS011;42530;52.240;19.354;2022-10-31T16:24:32;91.75;;;63.30;;
56657;SDS011;42530;52.240;19.354;2022-10-31T16:27:03;126.10;;;80.68;;
56657;SDS011;42530;52.240;19.354;2022-10-31T16:29:35;106.55;;;73.47;;
56657;SDS011;42530;52.240;19.354;2022-10-31T16:32:02;101.32;;;73.13;;
56657;SDS011;42530;52.240;19.354;2022-10-31T16:34:28;80.25;;;66.53;;
56657;SDS011;42530;52.240;19.354;2022-10-31T16:36:53;78.63;;;65.53;;
56657;SDS011;42530;52.240;19.354;2022-10-31T16:39:19;74.88;;;61.78;;
56657;SDS011;42530;52.240;19.354;2022-10-31T16:41:45;96.30;;;62.88;;
56657;SDS011;42530;52.240;19.354;2022-10-31T16:44:21;99.63;;;65.95;;
56657;SDS011;42530;52.240;19.354;2022-10-31T16:46:50;80.22;;;60.15;;
56657;SDS011;42530;52.240;19.354;2022-10-31T16:49:33;71.53;;;56.05;;
56657;SDS011;42530;52.240;19.354;2022-10-31T16:51:59;89.13;;;60.58;;
56657;SDS011;42530;52.240;19.354;2022-10-31T16:54:24;74.50;;;55.45;;
56657;SDS011;42530;52.240;19.354;2022-10-31T16:56:50;109.22;;;59.67;;
56657;SDS011;42530;52.240;19.354;2022-10-31T16:59:16;119.68;;;60.97;;
56657;SDS011;42530;52.240;19.354;2022-10-31T17:01:47;84.82;;;56.88;;